sensor_id;sensor_type;location;lat;lon;timestamp;temperature;humidity
7077;DHT22;3579;48.956;9.154;2023-04-15T00:01:38;18.20;50.60
7077;DHT22;3579;48.956;9.154;2023-04-15T00:04:04;18.20;50.60
7077;DHT22;3579;48.956;9.154;2023-04-15T00:06:30;18.20;50.60
7077;DHT22;3579;48.956;9.154;2023-04-15T00:08:56;18.20;50.60
7077;DHT22;3579;48.956;9.154;2023-04-15T00:11:22;18.20;50.60
7077;DHT22;3579;48.956;9.154;2023-04-15T00:13:49;18.10;50.60
7077;DHT22;3579;48.956;9.154;2023-04-15T00:16:15;18.10;50.70
7077;DHT22;3579;48.956;9.154;2023-04-15T00:18:41;18.10;50.70
7077;DHT22;3579;48.956;9.154;2023-04-15T00:21:07;18.10;50.70
7077;DHT22;3579;48.956;9.154;2023-04-15T00:23:34;18.10;50.70
7077;DHT22;3579;48.956;9.154;2023-04-15T00:26:01;18.10;50.70
7077;DHT22;3579;48.956;9.154;2023-04-15T00:28:27;18.10;50.70
7077;DHT22;3579;48.956;9.154;2023-04-15T00:30:54;18.10;50.70
7077;DHT22;3579;48.956;9.154;2023-04-15T00:33:20;18.10;50.70
7077;DHT22;3579;48.956;9.154;2023-04-15T00:35:46;18.10;50.80
7077;DHT22;3579;48.956;9.154;2023-04-15T00:38:12;18.10;50.80
7077;DHT22;3579;48.956;9.154;2023-04-15T00:40:38;18.00;50.80
7077;DHT22;3579;48.956;9.154;2023-04-15T00:43:04;18.00;50.80
7077;DHT22;3579;48.956;9.154;2023-04-15T00:45:30;18.00;50.80
7077;DHT22;3579;48.956;9.154;2023-04-15T00:47:58;18.00;50.80
7077;DHT22;3579;48.956;9.154;2023-04-15T00:50:24;18.00;50.80
7077;DHT22;3579;48.956;9.154;2023-04-15T00:52:50;18.00;50.90
7077;DHT22;3579;48.956;9.154;2023-04-15T00:55:16;18.00;50.90
7077;DHT22;3579;48.956;9.154;2023-04-15T00:57:43;18.00;50.90
7077;DHT22;3579;48.956;9.154;2023-04-15T01:00:10;17.90;50.80
7077;DHT22;3579;48.956;9.154;2023-04-15T01:02:36;17.90;50.90
7077;DHT22;3579;48.956;9.154;2023-04-15T01:05:04;18.00;51.00
7077;DHT22;3579;48.956;9.154;2023-04-15T01:07:30;17.90;50.90
7077;DHT22;3579;48.956;9.154;2023-04-15T01:09:57;17.90;51.00
7077;DHT22;3579;48.956;9.154;2023-04-15T01:12:25;17.90;51.00
7077;DHT22;3579;48.956;9.154;2023-04-15T01:14:52;17.90;51.00
7077;DHT22;3579;48.956;9.154;2023-04-15T01:17:19;17.90;51.00
7077;DHT22;3579;48.956;9.154;2023-04-15T01:19:45;17.90;51.00
7077;DHT22;3579;48.956;9.154;2023-04-15T01:22:12;17.80;51.00
7077;DHT22;3579;48.956;9.154;2023-04-15T01:24:38;17.80;51.00
7077;DHT22;3579;48.956;9.154;2023-04-15T01:27:04;17.80;51.00
7077;DHT22;3579;48.956;9.154;2023-04-15T01:29:32;17.80;51.10
7077;DHT22;3579;48.956;9.154;2023-04-15T01:31:58;17.80;51.10
7077;DHT22;3579;48.956;9.154;2023-04-15T01:34:24;17.80;51.10
7077;DHT22;3579;48.956;9.154;2023-04-15T01:36:50;17.70;51.00
7077;DHT22;3579;48.956;9.154;2023-04-15T01:39:16;17.70;51.10
7077;DHT22;3579;48.956;9.154;2023-04-15T01:41:42;17.70;51.10
7077;DHT22;3579;48.956;9.154;2023-04-15T01:44:08;17.70;51.10
7077;DHT22;3579;48.956;9.154;2023-04-15T01:46:35;17.70;51.10
7077;DHT22;3579;48.956;9.154;2023-04-15T01:49:01;17.70;51.10
7077;DHT22;3579;48.956;9.154;2023-04-15T01:51:28;17.70;51.10
7077;DHT22;3579;48.956;9.154;2023-04-15T01:53:54;17.70;51.10
7077;DHT22;3579;48.956;9.154;2023-04-15T01:56:21;17.70;51.20
7077;DHT22;3579;48.956;9.154;2023-04-15T01:58:49;17.70;51.20
7077;DHT22;3579;48.956;9.154;2023-04-15T02:01:15;17.70;51.20
7077;DHT22;3579;48.956;9.154;2023-04-15T02:03:44;17.70;51.20
7077;DHT22;3579;48.956;9.154;2023-04-15T02:06:11;17.70;51.30
7077;DHT22;3579;48.956;9.154;2023-04-15T02:08:37;17.60;51.20
7077;DHT22;3579;48.956;9.154;2023-04-15T02:11:04;17.70;51.30
7077;DHT22;3579;48.956;9.154;2023-04-15T02:13:30;17.60;51.20
7077;DHT22;3579;48.956;9.154;2023-04-15T02:15:56;17.60;51.20
7077;DHT22;3579;48.956;9.154;2023-04-15T02:18:22;17.60;51.20
7077;DHT22;3579;48.956;9.154;2023-04-15T02:20:50;17.60;51.20
7077;DHT22;3579;48.956;9.154;2023-04-15T02:23:17;17.60;51.30
7077;DHT22;3579;48.956;9.154;2023-04-15T02:25:43;17.50;51.20
7077;DHT22;3579;48.956;9.154;2023-04-15T02:28:09;17.60;51.30
7077;DHT22;3579;48.956;9.154;2023-04-15T02:30:35;17.50;51.30
7077;DHT22;3579;48.956;9.154;2023-04-15T02:33:01;17.50;51.30
7077;DHT22;3579;48.956;9.154;2023-04-15T02:35:27;17.50;51.30
7077;DHT22;3579;48.956;9.154;2023-04-15T02:37:54;17.50;51.30
7077;DHT22;3579;48.956;9.154;2023-04-15T02:40:20;17.50;51.30
7077;DHT22;3579;48.956;9.154;2023-04-15T02:42:46;17.50;51.30
7077;DHT22;3579;48.956;9.154;2023-04-15T02:45:12;17.50;51.30
7077;DHT22;3579;48.956;9.154;2023-04-15T02:47:38;17.60;51.30
7077;DHT22;3579;48.956;9.154;2023-04-15T02:50:07;17.60;51.30
7077;DHT22;3579;48.956;9.154;2023-04-15T02:52:34;17.60;51.20
7077;DHT22;3579;48.956;9.154;2023-04-15T02:55:00;17.60;51.20
7077;DHT22;3579;48.956;9.154;2023-04-15T02:57:27;17.60;51.10
7077;DHT22;3579;48.956;9.154;2023-04-15T02:59:56;17.60;51.10
7077;DHT22;3579;48.956;9.154;2023-04-15T03:02:23;17.60;51.00
7077;DHT22;3579;48.956;9.154;2023-04-15T03:04:49;17.60;51.00
7077;DHT22;3579;48.956;9.154;2023-04-15T03:07:17;17.70;51.10
7077;DHT22;3579;48.956;9.154;2023-04-15T03:09:43;17.60;51.00
7077;DHT22;3579;48.956;9.154;2023-04-15T03:12:09;17.60;51.00
7077;DHT22;3579;48.956;9.154;2023-04-15T03:14:35;17.60;51.10
7077;DHT22;3579;48.956;9.154;2023-04-15T03:17:01;17.60;51.10
7077;DHT22;3579;48.956;9.154;2023-04-15T03:19:27;17.60;51.70
7077;DHT22;3579;48.956;9.154;2023-04-15T03:21:53;17.50;51.10
7077;DHT22;3579;48.956;9.154;2023-04-15T03:24:20;17.50;51.10
7077;DHT22;3579;48.956;9.154;2023-04-15T03:26:46;17.50;51.10
7077;DHT22;3579;48.956;9.154;2023-04-15T03:29:12;17.50;51.10
7077;DHT22;3579;48.956;9.154;2023-04-15T03:31:38;17.50;51.10
7077;DHT22;3579;48.956;9.154;2023-04-15T03:34:04;17.50;51.10
7077;DHT22;3579;48.956;9.154;2023-04-15T03:36:30;17.50;51.20
7077;DHT22;3579;48.956;9.154;2023-04-15T03:38:59;17.50;51.20
7077;DHT22;3579;48.956;9.154;2023-04-15T03:41:27;17.50;51.20
7077;DHT22;3579;48.956;9.154;2023-04-15T03:43:53;17.40;51.20
7077;DHT22;3579;48.956;9.154;2023-04-15T03:46:19;17.40;51.20
7077;DHT22;3579;48.956;9.154;2023-04-15T03:48:46;17.40;51.80
7077;DHT22;3579;48.956;9.154;2023-04-15T03:51:13;17.40;51.20
7077;DHT22;3579;48.956;9.154;2023-04-15T03:53:39;17.40;51.30
7077;DHT22;3579;48.956;9.154;2023-04-15T03:56:05;17.40;51.30
7077;DHT22;3579;48.956;9.154;2023-04-15T03:58:31;17.40;51.30
7077;DHT22;3579;48.956;9.154;2023-04-15T04:00:57;17.30;51.30
7077;DHT22;3579;48.956;9.154;2023-04-15T04:03:23;17.30;51.30
7077;DHT22;3579;48.956;9.154;2023-04-15T04:05:50;17.30;51.30
7077;DHT22;3579;48.956;9.154;2023-04-15T04:08:16;17.30;51.40
7077;DHT22;3579;48.956;9.154;2023-04-15T04:10:44;17.30;51.40
7077;DHT22;3579;48.956;9.154;2023-04-15T04:13:10;17.30;51.40
7077;DHT22;3579;48.956;9.154;2023-04-15T04:15:36;17.30;51.30
7077;DHT22;3579;48.956;9.154;2023-04-15T04:18:02;17.30;51.30
7077;DHT22;3579;48.956;9.154;2023-04-15T04:20:28;17.30;51.30
7077;DHT22;3579;48.956;9.154;2023-04-15T04:22:57;17.30;51.20
7077;DHT22;3579;48.956;9.154;2023-04-15T04:25:23;17.40;51.30
7077;DHT22;3579;48.956;9.154;2023-04-15T04:27:49;17.40;51.30
7077;DHT22;3579;48.956;9.154;2023-04-15T04:30:15;17.40;51.30
7077;DHT22;3579;48.956;9.154;2023-04-15T04:32:41;17.40;51.30
7077;DHT22;3579;48.956;9.154;2023-04-15T04:35:08;17.40;51.30
7077;DHT22;3579;48.956;9.154;2023-04-15T04:37:34;17.40;51.30
7077;DHT22;3579;48.956;9.154;2023-04-15T04:40:01;17.40;51.30
7077;DHT22;3579;48.956;9.154;2023-04-15T04:42:27;17.30;51.30
7077;DHT22;3579;48.956;9.154;2023-04-15T04:44:53;17.30;51.30
7077;DHT22;3579;48.956;9.154;2023-04-15T04:47:19;17.40;51.30
7077;DHT22;3579;48.956;9.154;2023-04-15T04:49:45;17.30;51.30
7077;DHT22;3579;48.956;9.154;2023-04-15T04:52:11;17.30;51.30
7077;DHT22;3579;48.956;9.154;2023-04-15T04:54:37;17.30;51.30
7077;DHT22;3579;48.956;9.154;2023-04-15T04:57:03;17.30;51.30
7077;DHT22;3579;48.956;9.154;2023-04-15T04:59:29;17.30;51.30
7077;DHT22;3579;48.956;9.154;2023-04-15T05:01:56;16.60;50.70
7077;DHT22;3579;48.956;9.154;2023-04-15T05:04:22;17.30;51.30
7077;DHT22;3579;48.956;9.154;2023-04-15T05:06:48;17.30;51.30
7077;DHT22;3579;48.956;9.154;2023-04-15T05:09:14;17.30;51.20
7077;DHT22;3579;48.956;9.154;2023-04-15T05:11:40;17.40;51.30
7077;DHT22;3579;48.956;9.154;2023-04-15T05:14:06;17.30;51.20
7077;DHT22;3579;48.956;9.154;2023-04-15T05:16:32;17.40;51.30
7077;DHT22;3579;48.956;9.154;2023-04-15T05:18:58;17.40;51.30
7077;DHT22;3579;48.956;9.154;2023-04-15T05:21:25;17.40;51.30
7077;DHT22;3579;48.956;9.154;2023-04-15T05:23:52;17.40;51.20
7077;DHT22;3579;48.956;9.154;2023-04-15T05:26:18;17.40;51.20
7077;DHT22;3579;48.956;9.154;2023-04-15T05:28:44;17.40;51.10
7077;DHT22;3579;48.956;9.154;2023-04-15T05:31:10;17.40;51.10
7077;DHT22;3579;48.956;9.154;2023-04-15T05:33:37;17.50;51.00
7077;DHT22;3579;48.956;9.154;2023-04-15T05:36:03;17.50;50.90
7077;DHT22;3579;48.956;9.154;2023-04-15T05:38:29;17.60;50.80
7077;DHT22;3579;48.956;9.154;2023-04-15T05:40:55;17.70;50.70
7077;DHT22;3579;48.956;9.154;2023-04-15T05:43:21;17.70;50.60
7077;DHT22;3579;48.956;9.154;2023-04-15T05:45:47;17.80;50.50
7077;DHT22;3579;48.956;9.154;2023-04-15T05:48:13;17.80;50.40
7077;DHT22;3579;48.956;9.154;2023-04-15T05:50:42;17.90;50.30
7077;DHT22;3579;48.956;9.154;2023-04-15T05:53:08;18.00;50.20
7077;DHT22;3579;48.956;9.154;2023-04-15T05:55:34;18.10;50.00
7077;DHT22;3579;48.956;9.154;2023-04-15T05:58:00;18.20;49.80
7077;DHT22;3579;48.956;9.154;2023-04-15T06:00:26;18.50;49.60
7077;DHT22;3579;48.956;9.154;2023-04-15T06:02:52;18.80;49.10
7077;DHT22;3579;48.956;9.154;2023-04-15T06:05:18;19.20;48.50
7077;DHT22;3579;48.956;9.154;2023-04-15T06:07:44;19.50;47.90
7077;DHT22;3579;48.956;9.154;2023-04-15T06:10:11;20.00;47.30
7077;DHT22;3579;48.956;9.154;2023-04-15T06:12:37;20.40;46.50
7077;DHT22;3579;48.956;9.154;2023-04-15T06:15:04;20.80;45.90
7077;DHT22;3579;48.956;9.154;2023-04-15T06:17:31;21.10;45.40
7077;DHT22;3579;48.956;9.154;2023-04-15T06:19:57;21.30;45.00
7077;DHT22;3579;48.956;9.154;2023-04-15T06:22:23;21.50;44.70
7077;DHT22;3579;48.956;9.154;2023-04-15T06:24:50;21.50;44.50
7077;DHT22;3579;48.956;9.154;2023-04-15T06:27:16;21.60;44.60
7077;DHT22;3579;48.956;9.154;2023-04-15T06:29:42;21.50;44.60
7077;DHT22;3579;48.956;9.154;2023-04-15T06:32:09;21.40;44.80
7077;DHT22;3579;48.956;9.154;2023-04-15T06:34:35;21.30;44.90
7077;DHT22;3579;48.956;9.154;2023-04-15T06:37:01;21.00;45.40
7077;DHT22;3579;48.956;9.154;2023-04-15T06:39:27;21.00;45.60
7077;DHT22;3579;48.956;9.154;2023-04-15T06:41:53;21.20;45.60
7077;DHT22;3579;48.956;9.154;2023-04-15T06:44:19;21.70;45.00
7077;DHT22;3579;48.956;9.154;2023-04-15T06:46:46;22.30;44.10
7077;DHT22;3579;48.956;9.154;2023-04-15T06:49:12;22.20;43.70
7077;DHT22;3579;48.956;9.154;2023-04-15T06:51:38;22.10;43.90
7077;DHT22;3579;48.956;9.154;2023-04-15T06:54:04;21.70;44.20
7077;DHT22;3579;48.956;9.154;2023-04-15T06:56:32;21.40;44.70
7077;DHT22;3579;48.956;9.154;2023-04-15T06:58:58;21.10;45.20
7077;DHT22;3579;48.956;9.154;2023-04-15T07:01:24;20.80;45.60
7077;DHT22;3579;48.956;9.154;2023-04-15T07:03:50;20.70;46.00
7077;DHT22;3579;48.956;9.154;2023-04-15T07:06:16;20.60;46.20
7077;DHT22;3579;48.956;9.154;2023-04-15T07:08:42;20.40;46.40
7077;DHT22;3579;48.956;9.154;2023-04-15T07:11:08;20.20;46.60
7077;DHT22;3579;48.956;9.154;2023-04-15T07:13:34;20.10;46.90
7077;DHT22;3579;48.956;9.154;2023-04-15T07:16:01;19.90;47.10
7077;DHT22;3579;48.956;9.154;2023-04-15T07:18:27;19.80;47.20
7077;DHT22;3579;48.956;9.154;2023-04-15T07:20:53;19.80;47.50
7077;DHT22;3579;48.956;9.154;2023-04-15T07:23:19;19.80;47.60
7077;DHT22;3579;48.956;9.154;2023-04-15T07:25:45;19.70;47.60
7077;DHT22;3579;48.956;9.154;2023-04-15T07:28:12;19.70;47.70
7077;DHT22;3579;48.956;9.154;2023-04-15T07:30:38;19.70;47.70
7077;DHT22;3579;48.956;9.154;2023-04-15T07:33:04;19.70;47.70
7077;DHT22;3579;48.956;9.154;2023-04-15T07:35:30;19.80;47.70
7077;DHT22;3579;48.956;9.154;2023-04-15T07:37:56;19.90;47.60
7077;DHT22;3579;48.956;9.154;2023-04-15T07:40:22;20.00;47.50
7077;DHT22;3579;48.956;9.154;2023-04-15T07:42:48;20.10;47.30
7077;DHT22;3579;48.956;9.154;2023-04-15T07:45:15;20.20;47.20
7077;DHT22;3579;48.956;9.154;2023-04-15T07:47:41;20.30;47.20
7077;DHT22;3579;48.956;9.154;2023-04-15T07:50:09;20.30;47.10
7077;DHT22;3579;48.956;9.154;2023-04-15T07:52:36;20.30;47.10
7077;DHT22;3579;48.956;9.154;2023-04-15T07:55:07;20.40;47.20
7077;DHT22;3579;48.956;9.154;2023-04-15T07:57:34;20.40;47.00
7077;DHT22;3579;48.956;9.154;2023-04-15T08:00:02;20.40;47.10
7077;DHT22;3579;48.956;9.154;2023-04-15T08:02:30;20.50;47.10
7077;DHT22;3579;48.956;9.154;2023-04-15T08:04:57;20.50;47.10
7077;DHT22;3579;48.956;9.154;2023-04-15T08:07:23;20.50;47.10
7077;DHT22;3579;48.956;9.154;2023-04-15T08:09:50;20.60;47.10
7077;DHT22;3579;48.956;9.154;2023-04-15T08:12:16;20.60;47.10
7077;DHT22;3579;48.956;9.154;2023-04-15T08:14:42;20.70;47.10
7077;DHT22;3579;48.956;9.154;2023-04-15T08:17:08;20.80;47.20
7077;DHT22;3579;48.956;9.154;2023-04-15T08:19:34;20.80;47.20
7077;DHT22;3579;48.956;9.154;2023-04-15T08:22:00;20.80;47.10
7077;DHT22;3579;48.956;9.154;2023-04-15T08:24:27;20.90;47.00
7077;DHT22;3579;48.956;9.154;2023-04-15T08:26:53;21.10;47.10
7077;DHT22;3579;48.956;9.154;2023-04-15T08:29:19;21.10;46.80
7077;DHT22;3579;48.956;9.154;2023-04-15T08:31:45;21.20;46.70
7077;DHT22;3579;48.956;9.154;2023-04-15T08:34:12;21.30;46.70
7077;DHT22;3579;48.956;9.154;2023-04-15T08:36:38;21.40;46.70
7077;DHT22;3579;48.956;9.154;2023-04-15T08:39:04;21.40;46.60
7077;DHT22;3579;48.956;9.154;2023-04-15T08:41:44;21.40;46.60
7077;DHT22;3579;48.956;9.154;2023-04-15T08:44:13;21.50;46.60
7077;DHT22;3579;48.956;9.154;2023-04-15T08:46:40;21.60;46.60
7077;DHT22;3579;48.956;9.154;2023-04-15T08:49:10;21.60;46.90
7077;DHT22;3579;48.956;9.154;2023-04-15T08:51:39;21.60;46.30
7077;DHT22;3579;48.956;9.154;2023-04-15T08:54:07;21.70;46.20
7077;DHT22;3579;48.956;9.154;2023-04-15T08:56:34;21.70;46.10
7077;DHT22;3579;48.956;9.154;2023-04-15T08:59:01;21.80;46.00
7077;DHT22;3579;48.956;9.154;2023-04-15T09:01:27;21.90;46.10
7077;DHT22;3579;48.956;9.154;2023-04-15T09:03:55;21.90;46.00
7077;DHT22;3579;48.956;9.154;2023-04-15T09:06:22;22.00;45.90
7077;DHT22;3579;48.956;9.154;2023-04-15T09:08:49;22.10;45.90
7077;DHT22;3579;48.956;9.154;2023-04-15T09:11:17;22.00;45.70
7077;DHT22;3579;48.956;9.154;2023-04-15T09:13:43;22.00;45.80
7077;DHT22;3579;48.956;9.154;2023-04-15T09:16:09;22.00;45.70
7077;DHT22;3579;48.956;9.154;2023-04-15T09:18:37;22.00;46.10
7077;DHT22;3579;48.956;9.154;2023-04-15T09:21:11;22.00;45.70
7077;DHT22;3579;48.956;9.154;2023-04-15T09:23:39;22.00;45.70
7077;DHT22;3579;48.956;9.154;2023-04-15T09:26:06;21.90;45.60
7077;DHT22;3579;48.956;9.154;2023-04-15T09:28:32;21.90;45.60
7077;DHT22;3579;48.956;9.154;2023-04-15T09:31:01;21.90;45.70
7077;DHT22;3579;48.956;9.154;2023-04-15T09:33:28;21.90;45.60
7077;DHT22;3579;48.956;9.154;2023-04-15T09:36:04;21.90;45.60
7077;DHT22;3579;48.956;9.154;2023-04-15T09:38:31;21.90;45.60
7077;DHT22;3579;48.956;9.154;2023-04-15T09:40:58;22.00;45.60
7077;DHT22;3579;48.956;9.154;2023-04-15T09:43:39;21.90;45.60
7077;DHT22;3579;48.956;9.154;2023-04-15T09:46:05;22.00;45.60
7077;DHT22;3579;48.956;9.154;2023-04-15T09:48:31;22.00;45.50
7077;DHT22;3579;48.956;9.154;2023-04-15T09:50:58;22.00;45.60
7077;DHT22;3579;48.956;9.154;2023-04-15T09:53:25;22.00;45.60
7077;DHT22;3579;48.956;9.154;2023-04-15T09:55:55;21.90;45.60
7077;DHT22;3579;48.956;9.154;2023-04-15T09:58:26;22.00;45.60
7077;DHT22;3579;48.956;9.154;2023-04-15T10:00:53;22.00;45.60
7077;DHT22;3579;48.956;9.154;2023-04-15T10:05:51;22.10;45.40
7077;DHT22;3579;48.956;9.154;2023-04-15T10:08:19;22.10;45.30
7077;DHT22;3579;48.956;9.154;2023-04-15T10:10:46;22.20;45.40
7077;DHT22;3579;48.956;9.154;2023-04-15T10:13:15;22.20;45.30
7077;DHT22;3579;48.956;9.154;2023-04-15T10:15:44;22.10;45.30
7077;DHT22;3579;48.956;9.154;2023-04-15T10:18:15;22.10;45.20
7077;DHT22;3579;48.956;9.154;2023-04-15T10:20:43;22.10;45.30
7077;DHT22;3579;48.956;9.154;2023-04-15T10:23:10;22.10;45.40
7077;DHT22;3579;48.956;9.154;2023-04-15T10:25:37;22.10;45.40
7077;DHT22;3579;48.956;9.154;2023-04-15T10:28:05;22.10;45.40
7077;DHT22;3579;48.956;9.154;2023-04-15T10:30:32;22.10;45.40
7077;DHT22;3579;48.956;9.154;2023-04-15T10:33:00;22.10;45.40
7077;DHT22;3579;48.956;9.154;2023-04-15T10:35:30;22.10;45.40
7077;DHT22;3579;48.956;9.154;2023-04-15T10:37:56;22.10;45.30
7077;DHT22;3579;48.956;9.154;2023-04-15T10:42:50;22.20;45.40
7077;DHT22;3579;48.956;9.154;2023-04-15T10:45:17;22.20;45.40
7077;DHT22;3579;48.956;9.154;2023-04-15T10:47:44;22.20;45.20
7077;DHT22;3579;48.956;9.154;2023-04-15T10:50:10;22.30;45.20
7077;DHT22;3579;48.956;9.154;2023-04-15T10:52:39;22.30;45.20
7077;DHT22;3579;48.956;9.154;2023-04-15T10:55:14;22.30;45.20
7077;DHT22;3579;48.956;9.154;2023-04-15T10:57:41;22.30;45.20
7077;DHT22;3579;48.956;9.154;2023-04-15T11:02:44;22.30;45.20
7077;DHT22;3579;48.956;9.154;2023-04-15T11:05:13;22.30;45.20
7077;DHT22;3579;48.956;9.154;2023-04-15T11:12:47;22.20;45.20
7077;DHT22;3579;48.956;9.154;2023-04-15T11:15:31;22.20;45.10
7077;DHT22;3579;48.956;9.154;2023-04-15T11:18:18;22.20;45.10
7077;DHT22;3579;48.956;9.154;2023-04-15T11:20:48;22.30;45.10
7077;DHT22;3579;48.956;9.154;2023-04-15T11:23:29;22.20;45.20
7077;DHT22;3579;48.956;9.154;2023-04-15T11:25:57;22.20;45.20
7077;DHT22;3579;48.956;9.154;2023-04-15T11:28:31;22.20;45.40
7077;DHT22;3579;48.956;9.154;2023-04-15T11:31:02;22.10;45.40
7077;DHT22;3579;48.956;9.154;2023-04-15T11:33:30;22.10;45.40
7077;DHT22;3579;48.956;9.154;2023-04-15T11:35:56;22.10;45.50
7077;DHT22;3579;48.956;9.154;2023-04-15T11:38:23;22.10;45.40
7077;DHT22;3579;48.956;9.154;2023-04-15T11:40:49;22.00;45.40
7077;DHT22;3579;48.956;9.154;2023-04-15T11:43:19;22.10;45.40
7077;DHT22;3579;48.956;9.154;2023-04-15T11:45:54;22.10;45.40
7077;DHT22;3579;48.956;9.154;2023-04-15T11:48:26;22.10;45.40
7077;DHT22;3579;48.956;9.154;2023-04-15T11:50:54;22.10;45.40
7077;DHT22;3579;48.956;9.154;2023-04-15T11:53:20;22.10;45.40
7077;DHT22;3579;48.956;9.154;2023-04-15T11:55:49;22.10;45.50
7077;DHT22;3579;48.956;9.154;2023-04-15T11:58:24;22.00;45.50
7077;DHT22;3579;48.956;9.154;2023-04-15T12:00:58;21.90;45.70
7077;DHT22;3579;48.956;9.154;2023-04-15T12:06:17;21.80;45.80
7077;DHT22;3579;48.956;9.154;2023-04-15T12:16:39;21.60;46.20
7077;DHT22;3579;48.956;9.154;2023-04-15T12:19:08;21.60;46.30
7077;DHT22;3579;48.956;9.154;2023-04-15T12:21:37;21.50;46.30
7077;DHT22;3579;48.956;9.154;2023-04-15T12:24:06;21.50;46.40
7077;DHT22;3579;48.956;9.154;2023-04-15T12:26:44;21.50;46.50
7077;DHT22;3579;48.956;9.154;2023-04-15T12:29:12;21.50;46.50
7077;DHT22;3579;48.956;9.154;2023-04-15T12:31:49;21.50;46.50
7077;DHT22;3579;48.956;9.154;2023-04-15T12:34:18;21.50;46.60
7077;DHT22;3579;48.956;9.154;2023-04-15T12:36:50;21.50;46.60
7077;DHT22;3579;48.956;9.154;2023-04-15T12:39:16;21.50;46.60
7077;DHT22;3579;48.956;9.154;2023-04-15T12:41:42;21.50;46.60
7077;DHT22;3579;48.956;9.154;2023-04-15T12:44:08;21.50;46.80
7077;DHT22;3579;48.956;9.154;2023-04-15T12:46:34;21.50;46.80
7077;DHT22;3579;48.956;9.154;2023-04-15T12:49:00;21.50;46.80
7077;DHT22;3579;48.956;9.154;2023-04-15T12:51:26;21.40;46.80
7077;DHT22;3579;48.956;9.154;2023-04-15T12:53:52;21.50;46.80
7077;DHT22;3579;48.956;9.154;2023-04-15T12:56:18;21.50;47.00
7077;DHT22;3579;48.956;9.154;2023-04-15T12:58:44;21.40;46.70
7077;DHT22;3579;48.956;9.154;2023-04-15T13:01:10;21.40;46.80
7077;DHT22;3579;48.956;9.154;2023-04-15T13:03:36;21.40;46.80
7077;DHT22;3579;48.956;9.154;2023-04-15T13:06:02;21.40;46.80
7077;DHT22;3579;48.956;9.154;2023-04-15T13:08:30;21.40;46.70
7077;DHT22;3579;48.956;9.154;2023-04-15T13:10:56;21.40;46.70
7077;DHT22;3579;48.956;9.154;2023-04-15T13:13:22;21.40;46.80
7077;DHT22;3579;48.956;9.154;2023-04-15T13:15:48;21.30;46.70
7077;DHT22;3579;48.956;9.154;2023-04-15T13:18:14;21.30;46.80
7077;DHT22;3579;48.956;9.154;2023-04-15T13:20:40;21.30;46.80
7077;DHT22;3579;48.956;9.154;2023-04-15T13:23:07;22.00;47.40
7077;DHT22;3579;48.956;9.154;2023-04-15T13:25:33;21.30;46.80
7077;DHT22;3579;48.956;9.154;2023-04-15T13:27:59;21.30;47.00
7077;DHT22;3579;48.956;9.154;2023-04-15T13:30:26;21.30;46.80
7077;DHT22;3579;48.956;9.154;2023-04-15T13:32:53;21.20;46.80
7077;DHT22;3579;48.956;9.154;2023-04-15T13:35:19;21.20;46.90
7077;DHT22;3579;48.956;9.154;2023-04-15T13:37:46;21.20;46.90
7077;DHT22;3579;48.956;9.154;2023-04-15T13:40:12;21.20;46.90
7077;DHT22;3579;48.956;9.154;2023-04-15T13:42:38;21.10;46.90
7077;DHT22;3579;48.956;9.154;2023-04-15T13:45:04;21.10;46.90
7077;DHT22;3579;48.956;9.154;2023-04-15T13:47:31;21.10;47.00
7077;DHT22;3579;48.956;9.154;2023-04-15T13:49:57;21.10;47.10
7077;DHT22;3579;48.956;9.154;2023-04-15T13:52:23;21.10;47.10
7077;DHT22;3579;48.956;9.154;2023-04-15T13:54:49;21.00;47.00
7077;DHT22;3579;48.956;9.154;2023-04-15T13:57:15;21.00;47.10
7077;DHT22;3579;48.956;9.154;2023-04-15T13:59:41;20.90;47.00
7077;DHT22;3579;48.956;9.154;2023-04-15T14:02:09;21.00;47.10
7077;DHT22;3579;48.956;9.154;2023-04-15T14:04:35;21.00;47.20
7077;DHT22;3579;48.956;9.154;2023-04-15T14:07:00;21.00;47.20
7077;DHT22;3579;48.956;9.154;2023-04-15T14:09:27;20.90;47.20
7077;DHT22;3579;48.956;9.154;2023-04-15T14:11:53;21.00;47.30
7077;DHT22;3579;48.956;9.154;2023-04-15T14:14:19;20.90;47.20
7077;DHT22;3579;48.956;9.154;2023-04-15T14:16:45;20.90;47.30
7077;DHT22;3579;48.956;9.154;2023-04-15T14:19:11;20.90;47.30
7077;DHT22;3579;48.956;9.154;2023-04-15T14:21:37;20.90;47.30
7077;DHT22;3579;48.956;9.154;2023-04-15T14:24:03;21.80;48.00
7077;DHT22;3579;48.956;9.154;2023-04-15T14:26:29;20.90;47.30
7077;DHT22;3579;48.956;9.154;2023-04-15T14:28:55;20.80;47.30
7077;DHT22;3579;48.956;9.154;2023-04-15T14:31:21;20.80;47.30
7077;DHT22;3579;48.956;9.154;2023-04-15T14:33:47;20.80;47.40
7077;DHT22;3579;48.956;9.154;2023-04-15T14:36:13;20.80;47.40
7077;DHT22;3579;48.956;9.154;2023-04-15T14:38:39;20.80;47.40
7077;DHT22;3579;48.956;9.154;2023-04-15T14:41:06;20.80;47.40
7077;DHT22;3579;48.956;9.154;2023-04-15T14:43:35;20.80;47.40
7077;DHT22;3579;48.956;9.154;2023-04-15T14:46:01;20.80;47.50
7077;DHT22;3579;48.956;9.154;2023-04-15T14:48:27;20.80;47.50
7077;DHT22;3579;48.956;9.154;2023-04-15T14:50:53;20.70;47.40
7077;DHT22;3579;48.956;9.154;2023-04-15T14:53:19;20.70;47.50
7077;DHT22;3579;48.956;9.154;2023-04-15T14:55:46;20.70;47.60
7077;DHT22;3579;48.956;9.154;2023-04-15T14:58:12;20.60;47.50
7077;DHT22;3579;48.956;9.154;2023-04-15T15:00:38;20.60;47.50
7077;DHT22;3579;48.956;9.154;2023-04-15T15:03:08;20.60;47.60
7077;DHT22;3579;48.956;9.154;2023-04-15T15:05:38;20.60;47.70
7077;DHT22;3579;48.956;9.154;2023-04-15T15:08:06;20.50;47.60
7077;DHT22;3579;48.956;9.154;2023-04-15T15:10:33;20.50;47.70
7077;DHT22;3579;48.956;9.154;2023-04-15T15:12:59;20.50;47.70
7077;DHT22;3579;48.956;9.154;2023-04-15T15:15:25;20.50;47.80
7077;DHT22;3579;48.956;9.154;2023-04-15T15:17:52;20.40;47.80
7077;DHT22;3579;48.956;9.154;2023-04-15T15:20:19;20.40;47.80
7077;DHT22;3579;48.956;9.154;2023-04-15T15:22:46;20.40;47.90
7077;DHT22;3579;48.956;9.154;2023-04-15T15:25:12;20.40;47.90
7077;DHT22;3579;48.956;9.154;2023-04-15T15:27:38;20.40;48.00
7077;DHT22;3579;48.956;9.154;2023-04-15T15:30:04;20.30;47.90
7077;DHT22;3579;48.956;9.154;2023-04-15T15:32:31;20.30;48.00
7077;DHT22;3579;48.956;9.154;2023-04-15T15:34:57;20.30;48.10
7077;DHT22;3579;48.956;9.154;2023-04-15T15:37:23;20.30;48.10
7077;DHT22;3579;48.956;9.154;2023-04-15T15:39:51;20.30;48.10
7077;DHT22;3579;48.956;9.154;2023-04-15T15:42:21;20.20;48.10
7077;DHT22;3579;48.956;9.154;2023-04-15T15:44:48;20.20;48.10
7077;DHT22;3579;48.956;9.154;2023-04-15T15:47:15;20.20;48.20
7077;DHT22;3579;48.956;9.154;2023-04-15T15:49:41;20.20;48.20
7077;DHT22;3579;48.956;9.154;2023-04-15T15:52:07;20.20;48.20
7077;DHT22;3579;48.956;9.154;2023-04-15T15:54:33;20.20;48.20
7077;DHT22;3579;48.956;9.154;2023-04-15T15:57:00;20.20;48.20
7077;DHT22;3579;48.956;9.154;2023-04-15T15:59:26;20.10;48.30
7077;DHT22;3579;48.956;9.154;2023-04-15T16:01:52;20.10;48.30
7077;DHT22;3579;48.956;9.154;2023-04-15T16:04:18;20.10;48.30
7077;DHT22;3579;48.956;9.154;2023-04-15T16:06:44;20.10;48.40
7077;DHT22;3579;48.956;9.154;2023-04-15T16:09:11;20.10;48.40
7077;DHT22;3579;48.956;9.154;2023-04-15T16:11:38;20.10;48.40
7077;DHT22;3579;48.956;9.154;2023-04-15T16:14:04;20.00;48.40
7077;DHT22;3579;48.956;9.154;2023-04-15T16:16:30;20.00;48.40
7077;DHT22;3579;48.956;9.154;2023-04-15T16:18:56;20.00;48.40
7077;DHT22;3579;48.956;9.154;2023-04-15T16:21:22;20.00;48.50
7077;DHT22;3579;48.956;9.154;2023-04-15T16:23:50;20.00;48.50